Terminal Aerodrome Forecast
Issued by NWS St Louis, MO

Home | Current Version | Previous Version | Text Only | Print | Product List | Glossary On
Versions: 1 2 3 4 5 6 7 8 9 10 11 12 13 14 15 16 17 18 19 20 21 22 23 24 25 26 27 28 29 30 31 32 33
795
FTUS43 KLSX 251140
TAFSTL
TAF
KSTL 251140Z 2512/2618 18009KT P6SM -SHRA VCTS BKN060CB
     FM251700 18013G20KT P6SM SCT040 BKN250
      TEMPO 2521/2524 4SM TSRA BKN040CB
     FM260100 18011KT P6SM BKN050=

USA.gov is the U.S. government's official web portal to all federal, state and local government web resources and services.